McClellandtown, Pennsylvania
Current Conditions -  °F | °C
As of 2:53 PM on Friday 28 Nov 2014 (Local Time) from KMGW Reporting Station
Light Snow Light Snow  
Wind Chill: 21°   Ceiling: 3900
Heat Index: 29°   Visibility: 9mi
Dew Point: 16°   Wind: 8mph
Humidity: 58%   Direction: 220°SW
Pressure: 30.26"   Gusts: NA
Location:  39.89°N, 79.87°W
Report Text: KMGW 281953Z 22007KT 9SM -SN FEW027 OVC039 M02/M09 A3026 RMK AO2 SNB1854 SLP262 P0000 T10171089
Loading
Personal Weather Stations






























Interactive Weather Map New forecast layout! Learn more

10-Day Weather Forecast

Advertisements
Track Severe Weather on mobile